createdAt,value
2019-05-28T00:00:49.918Z,2.07
2019-05-28T00:03:18.398Z,1.50
2019-05-28T00:05:46.822Z,1.43
2019-05-28T00:08:15.378Z,1.70
2019-05-28T00:10:43.794Z,1.70
2019-05-28T00:13:12.262Z,1.67
2019-05-28T00:15:41.561Z,1.47
2019-05-28T00:18:10.081Z,1.77
2019-05-28T00:20:38.497Z,1.70
2019-05-28T00:23:06.945Z,1.40
2019-05-28T00:25:35.372Z,1.63
2019-05-28T00:28:03.914Z,1.70
2019-05-28T00:30:32.401Z,1.60
2019-05-28T00:33:00.851Z,1.87
2019-05-28T00:35:29.264Z,1.47
2019-05-28T00:37:57.698Z,1.70
2019-05-28T00:40:26.128Z,1.60
2019-05-28T00:42:54.587Z,1.87
2019-05-28T00:45:23.364Z,1.63
2019-05-28T00:47:51.794Z,1.60
2019-05-28T00:50:20.308Z,2.13
2019-05-28T00:52:48.716Z,1.50
2019-05-28T00:55:17.220Z,2.20
2019-05-28T00:57:47.688Z,1.83
2019-05-28T01:00:17.273Z,1.50
2019-05-28T01:02:45.709Z,1.67
2019-05-28T01:05:14.206Z,1.57
2019-05-28T01:07:42.707Z,1.60
2019-05-28T01:10:11.562Z,1.73
2019-05-28T01:12:39.975Z,1.67
2019-05-28T01:15:08.956Z,1.73
2019-05-28T01:17:37.652Z,1.73
2019-05-28T01:20:09.666Z,2.20
2019-05-28T01:22:38.085Z,2.13
2019-05-28T01:25:07.055Z,2.20
2019-05-28T01:27:35.488Z,1.90
2019-05-28T01:30:06.274Z,2.00
2019-05-28T01:32:34.695Z,1.90
2019-05-28T01:35:03.709Z,1.90
2019-05-28T01:37:32.146Z,1.53
2019-05-28T01:40:00.633Z,2.10
2019-05-28T01:42:29.082Z,1.80
2019-05-28T01:44:57.533Z,1.87
2019-05-28T01:47:25.967Z,1.80
2019-05-28T01:49:54.484Z,1.60
2019-05-28T01:52:22.971Z,2.40
2019-05-28T01:54:51.415Z,1.90
2019-05-28T01:57:19.848Z,2.03
2019-05-28T01:59:48.304Z,1.80
2019-05-28T02:02:16.783Z,1.47
2019-05-28T02:04:45.288Z,1.73
2019-05-28T02:07:13.791Z,2.73
2019-05-28T02:09:42.276Z,2.00
2019-05-28T02:12:10.711Z,1.70
2019-05-28T02:14:39.447Z,2.27
2019-05-28T02:17:07.919Z,1.80
2019-05-28T02:19:36.338Z,2.20
2019-05-28T02:22:04.882Z,2.10
2019-05-28T02:24:33.318Z,2.10
2019-05-28T02:27:01.744Z,2.17
2019-05-28T02:29:30.174Z,2.27
2019-05-28T02:31:58.608Z,2.27
2019-05-28T02:34:27.051Z,1.80
2019-05-28T02:36:55.472Z,2.10
2019-05-28T02:39:23.880Z,2.17
2019-05-28T02:41:52.328Z,2.07
2019-05-28T02:44:20.738Z,2.47
2019-05-28T02:46:49.173Z,2.03
2019-05-28T02:49:17.586Z,2.20
2019-05-28T02:51:46.681Z,2.37
2019-05-28T02:54:15.372Z,2.17
2019-05-28T02:56:44.830Z,2.10
2019-05-28T02:59:17.471Z,2.37
2019-05-28T03:01:45.929Z,2.27
2019-05-28T03:04:15.874Z,2.83
2019-05-28T03:06:45.969Z,2.10
2019-05-28T03:09:14.727Z,2.50
2019-05-28T03:11:43.232Z,4.43
2019-05-28T03:14:11.670Z,3.03
2019-05-28T03:16:43.267Z,2.77
2019-05-28T03:19:12.418Z,2.00
2019-05-28T03:21:42.070Z,2.93
2019-05-28T03:24:12.549Z,2.60
2019-05-28T03:26:40.994Z,2.30
2019-05-28T03:29:09.406Z,2.10
2019-05-28T03:31:37.862Z,2.33
2019-05-28T03:34:06.287Z,2.70
2019-05-28T03:36:35.334Z,2.20
2019-05-28T03:39:05.375Z,2.37
2019-05-28T03:41:33.808Z,2.70
2019-05-28T03:44:02.499Z,2.87
2019-05-28T03:46:30.947Z,2.30
2019-05-28T03:48:59.379Z,3.20
2019-05-28T03:51:27.801Z,3.83
2019-05-28T03:53:56.248Z,5.13
2019-05-28T03:56:24.672Z,5.77
2019-05-28T03:58:53.097Z,4.10
2019-05-28T04:01:21.551Z,3.10
2019-05-28T04:03:49.991Z,2.73
2019-05-28T04:06:18.441Z,2.83
2019-05-28T04:08:46.883Z,2.47
2019-05-28T04:11:15.310Z,2.40
2019-05-28T04:13:43.748Z,2.47
2019-05-28T04:16:12.176Z,2.80
2019-05-28T04:18:40.602Z,2.20
2019-05-28T04:21:09.036Z,2.90
2019-05-28T04:23:41.240Z,2.40
2019-05-28T04:26:07.638Z,2.03
2019-05-28T04:28:36.058Z,1.83
2019-05-28T04:31:04.611Z,2.50
2019-05-28T04:33:33.051Z,1.70
2019-05-28T04:36:01.477Z,1.97
2019-05-28T04:38:29.908Z,2.07
2019-05-28T04:40:58.328Z,2.67
2019-05-28T04:43:26.851Z,2.47
2019-05-28T04:45:55.410Z,2.60
2019-05-28T04:48:23.872Z,2.23
2019-05-28T04:50:52.279Z,2.63
2019-05-28T04:53:20.716Z,2.37
2019-05-28T04:55:49.144Z,2.27
2019-05-28T04:58:17.595Z,2.10
2019-05-28T05:00:46.092Z,2.53
2019-05-28T05:03:14.646Z,2.00
2019-05-28T05:05:43.097Z,1.93
2019-05-28T05:08:12.566Z,2.30
2019-05-28T05:10:41.059Z,2.10
2019-05-28T05:13:13.271Z,2.13
2019-05-28T05:15:41.691Z,2.50
2019-05-28T05:18:10.173Z,2.23
2019-05-28T05:20:39.050Z,2.00
2019-05-28T05:23:07.479Z,2.60
2019-05-28T05:25:35.971Z,2.20
2019-05-28T05:28:04.418Z,2.00
2019-05-28T05:30:32.901Z,1.90
2019-05-28T05:33:18.565Z,2.00
2019-05-28T05:35:31.649Z,2.10
2019-05-28T05:38:00.270Z,2.40
2019-05-28T05:40:28.834Z,2.40
2019-05-28T05:42:57.287Z,2.17
2019-05-28T05:45:25.800Z,2.20
2019-05-28T05:47:54.227Z,2.63
2019-05-28T05:50:22.725Z,2.23
2019-05-28T05:52:56.918Z,2.30
2019-05-28T05:55:25.338Z,2.60
2019-05-28T05:57:53.815Z,2.43
2019-05-28T06:00:22.264Z,2.60
2019-05-28T06:02:52.241Z,2.73
2019-05-28T06:05:20.663Z,2.80
2019-05-28T06:07:51.839Z,2.63
2019-05-28T06:10:20.525Z,2.30
2019-05-28T06:12:50.491Z,2.20
2019-05-28T06:15:19.438Z,2.17
2019-05-28T06:17:49.432Z,2.50
2019-05-28T06:20:18.185Z,2.10
2019-05-28T06:22:48.286Z,2.47
2019-05-28T06:25:18.854Z,1.80
2019-05-28T06:27:47.364Z,1.97
2019-05-28T06:30:16.022Z,2.23
2019-05-28T06:32:44.454Z,2.00
2019-05-28T06:35:13.005Z,2.03
2019-05-28T06:37:41.474Z,1.80
2019-05-28T06:40:09.956Z,2.33
2019-05-28T06:42:39.570Z,1.50
2019-05-28T06:45:09.198Z,1.70
2019-05-28T06:47:37.671Z,2.07
2019-05-28T06:50:12.854Z,1.73
2019-05-28T06:52:41.487Z,1.67
2019-05-28T06:55:10.176Z,3.10
2019-05-28T06:57:38.602Z,5.80
2019-05-28T07:00:08.214Z,2.00
2019-05-28T07:02:36.659Z,1.50
2019-05-28T07:05:06.925Z,2.13
2019-05-28T07:07:35.343Z,4.00
2019-05-28T07:10:05.937Z,1.70
2019-05-28T07:12:34.375Z,1.70
2019-05-28T07:15:02.884Z,1.80
2019-05-28T07:17:31.409Z,2.30
2019-05-28T07:19:59.830Z,2.80
2019-05-28T07:22:28.264Z,3.77
2019-05-28T07:24:56.701Z,2.40
2019-05-28T07:27:25.152Z,1.80
2019-05-28T07:29:53.645Z,2.13
2019-05-28T07:32:22.090Z,1.87
2019-05-28T07:34:50.580Z,2.23
2019-05-28T07:37:19.000Z,2.50
2019-05-28T07:39:47.427Z,2.10
2019-05-28T07:42:31.739Z,1.97
2019-05-28T07:44:47.654Z,1.97
2019-05-28T07:47:16.108Z,2.10
2019-05-28T07:49:46.788Z,1.90
2019-05-28T07:52:15.202Z,3.33
2019-05-28T07:54:43.648Z,2.10
2019-05-28T07:57:12.170Z,2.83
2019-05-28T07:59:40.624Z,2.07
2019-05-28T08:02:09.215Z,2.20
2019-05-28T08:04:46.820Z,1.40
2019-05-28T08:07:07.795Z,2.23
2019-05-28T08:09:36.314Z,1.60
2019-05-28T08:12:05.935Z,1.80
2019-05-28T08:14:34.438Z,1.30
2019-05-28T08:17:02.913Z,1.33
2019-05-28T08:19:31.342Z,1.50
2019-05-28T08:22:04.406Z,1.47
2019-05-28T08:24:32.851Z,1.47
2019-05-28T08:27:01.281Z,1.90
2019-05-28T08:29:29.764Z,1.80
2019-05-28T08:31:58.174Z,1.70
2019-05-28T08:34:26.703Z,1.70
2019-05-28T08:37:05.145Z,1.60
2019-05-28T08:39:25.372Z,1.60
2019-05-28T08:41:54.203Z,2.27
2019-05-28T08:44:22.642Z,1.77
2019-05-28T08:46:51.096Z,1.37
2019-05-28T08:49:19.541Z,1.30
2019-05-28T08:51:47.947Z,1.37
2019-05-28T08:54:16.388Z,1.70
2019-05-28T08:56:44.818Z,1.53
2019-05-28T08:59:13.227Z,1.43
2019-05-28T09:01:41.674Z,1.57
2019-05-28T09:04:11.894Z,1.50
2019-05-28T09:06:40.474Z,1.33
2019-05-28T09:09:09.079Z,1.53
2019-05-28T09:11:37.538Z,1.10
2019-05-28T09:14:06.038Z,1.90
2019-05-28T09:16:34.477Z,1.13
2019-05-28T09:19:03.079Z,1.80
2019-05-28T09:21:31.511Z,1.57
2019-05-28T09:24:02.909Z,1.40
2019-05-28T09:26:31.402Z,1.17
2019-05-28T09:28:59.861Z,1.57
2019-05-28T09:31:28.277Z,1.30
2019-05-28T09:33:56.728Z,1.50
2019-05-28T09:36:25.148Z,1.55
2019-05-28T09:38:53.672Z,1.47
2019-05-28T09:41:22.310Z,1.22
2019-05-28T09:43:50.737Z,1.27
2019-05-28T09:46:19.203Z,1.77
2019-05-28T09:48:47.615Z,1.37
2019-05-28T09:51:16.114Z,1.53
2019-05-28T09:53:44.538Z,1.20
2019-05-28T09:56:12.995Z,1.22
2019-05-28T09:58:41.466Z,1.00
2019-05-28T10:01:09.946Z,1.20
2019-05-28T10:03:38.373Z,1.00
2019-05-28T10:06:17.981Z,1.12
2019-05-28T10:08:45.976Z,0.90
2019-05-28T10:11:14.422Z,1.33
2019-05-28T10:13:43.537Z,1.75
2019-05-28T10:16:12.829Z,1.52
2019-05-28T10:18:41.319Z,1.22
2019-05-28T10:21:18.211Z,0.90
2019-05-28T10:23:39.936Z,1.10
2019-05-28T10:26:08.381Z,1.15
2019-05-28T10:28:36.812Z,1.00
2019-05-28T10:31:05.307Z,0.78
2019-05-28T10:33:33.737Z,1.10
2019-05-28T10:36:02.200Z,1.47
2019-05-28T10:38:30.631Z,1.40
2019-05-28T10:40:59.084Z,1.35
2019-05-28T10:43:27.504Z,1.20
2019-05-28T10:45:55.960Z,1.37
2019-05-28T10:48:24.513Z,1.20
2019-05-28T10:50:52.981Z,1.27
2019-05-28T10:53:21.689Z,1.17
2019-05-28T10:55:50.278Z,1.20
2019-05-28T10:58:18.871Z,0.82
2019-05-28T11:00:47.336Z,1.52
2019-05-28T11:03:15.819Z,1.27
2019-05-28T11:05:44.300Z,1.40
2019-05-28T11:08:12.747Z,1.40
2019-05-28T11:10:41.204Z,1.37
2019-05-28T11:13:09.685Z,1.05
2019-05-28T11:15:38.160Z,1.20
2019-05-28T11:18:06.761Z,1.27
2019-05-28T11:20:35.278Z,1.20
2019-05-28T11:23:04.218Z,0.85
2019-05-28T11:25:32.755Z,1.32
2019-05-28T11:28:01.289Z,1.50
2019-05-28T11:30:29.812Z,1.20
2019-05-28T11:32:58.286Z,0.90
2019-05-28T11:35:26.889Z,1.12
2019-05-28T11:37:55.453Z,1.52
2019-05-28T11:40:24.343Z,1.50
2019-05-28T11:42:52.788Z,2.27
2019-05-28T11:45:21.806Z,2.00
2019-05-28T11:47:51.256Z,1.27
2019-05-28T11:50:20.093Z,1.20
2019-05-28T11:52:48.555Z,1.10
2019-05-28T11:55:19.143Z,1.40
2019-05-28T11:57:47.604Z,1.40
2019-05-28T12:00:16.884Z,1.32
2019-05-28T12:02:45.428Z,1.05
2019-05-28T12:05:14.332Z,1.30
2019-05-28T12:07:42.856Z,1.15
2019-05-28T12:10:12.967Z,0.82
2019-05-28T12:12:41.531Z,1.40
2019-05-28T12:15:15.143Z,0.98
2019-05-28T12:17:45.733Z,0.60
2019-05-28T12:20:15.661Z,0.98
2019-05-28T12:22:44.207Z,0.62
2019-05-28T12:25:13.484Z,0.70
2019-05-28T12:27:42.123Z,0.90
2019-05-28T12:30:12.849Z,1.15
2019-05-28T12:32:41.330Z,0.50
2019-05-28T12:35:26.199Z,0.90
2019-05-28T12:37:48.111Z,0.78
2019-05-28T12:40:11.278Z,0.55
2019-05-28T12:42:39.767Z,0.90
2019-05-28T12:45:13.943Z,0.40
2019-05-28T12:47:43.685Z,0.45
2019-05-28T12:50:19.852Z,0.23
2019-05-28T12:52:46.874Z,0.40
2019-05-28T12:55:13.470Z,0.33
2019-05-28T12:57:41.987Z,0.47
2019-05-28T13:00:12.768Z,0.53
2019-05-28T13:02:41.238Z,0.40
2019-05-28T13:05:12.755Z,0.37
2019-05-28T13:07:41.223Z,0.50
2019-05-28T13:10:10.523Z,0.70
2019-05-28T13:12:39.163Z,0.45
2019-05-28T13:15:10.150Z,0.60
2019-05-28T13:17:41.412Z,0.40
2019-05-28T13:20:10.962Z,0.68
2019-05-28T13:22:39.910Z,0.50
2019-05-28T13:25:10.352Z,0.40
2019-05-28T13:27:38.768Z,0.50
2019-05-28T13:30:15.754Z,0.55
2019-05-28T13:32:45.020Z,0.40
2019-05-28T13:35:15.536Z,0.30
2019-05-28T13:37:44.118Z,0.62
2019-05-28T13:40:16.609Z,0.57
2019-05-28T13:42:45.132Z,0.50
2019-05-28T13:45:14.211Z,0.42
2019-05-28T13:47:43.252Z,0.70
2019-05-28T13:50:13.566Z,0.70
2019-05-28T13:52:42.026Z,0.20
2019-05-28T13:55:12.023Z,0.40
2019-05-28T13:57:40.798Z,0.50
2019-05-28T14:00:20.378Z,0.50
2019-05-28T14:02:48.820Z,0.40
2019-05-28T14:05:18.544Z,0.25
2019-05-28T14:07:47.394Z,0.40
2019-05-28T14:10:17.848Z,0.30
2019-05-28T14:12:48.913Z,0.45
2019-05-28T14:15:18.245Z,0.40
2019-05-28T14:17:46.875Z,0.33
2019-05-28T14:20:16.099Z,1.20
2019-05-28T14:22:44.722Z,0.55
2019-05-28T14:25:14.458Z,0.45
2019-05-28T14:27:42.922Z,0.62
2019-05-28T14:30:15.322Z,0.50
2019-05-28T14:32:47.086Z,0.37
2019-05-28T14:35:16.105Z,0.35
2019-05-28T14:37:44.608Z,0.50
2019-05-28T14:40:14.248Z,0.30
2019-05-28T14:42:46.771Z,0.50
2019-05-28T14:45:16.147Z,0.30
2019-05-28T14:47:44.854Z,0.40
2019-05-28T14:50:13.779Z,0.90
2019-05-28T14:52:46.043Z,0.50
2019-05-28T14:55:18.781Z,0.23
2019-05-28T14:57:47.341Z,0.25
2019-05-28T15:00:18.008Z,0.40
2019-05-28T15:02:46.663Z,0.70
2019-05-28T15:05:15.424Z,0.20
2019-05-28T15:07:44.249Z,0.50
2019-05-28T15:10:16.966Z,0.50
2019-05-28T15:12:45.992Z,0.30
2019-05-28T15:15:15.562Z,0.50
2019-05-28T15:17:44.050Z,0.50
2019-05-28T15:20:13.551Z,0.93
2019-05-28T15:22:42.069Z,0.50
2019-05-28T15:25:11.307Z,0.60
2019-05-28T15:27:39.932Z,0.60
2019-05-28T15:30:13.042Z,0.30
2019-05-28T15:32:41.865Z,0.40
2019-05-28T15:35:17.640Z,0.40
2019-05-28T15:37:46.581Z,0.33
2019-05-28T15:40:17.036Z,0.40
2019-05-28T15:42:45.536Z,0.78
2019-05-28T15:45:14.711Z,0.40
2019-05-28T15:47:44.844Z,0.90
2019-05-28T15:50:14.122Z,0.50
2019-05-28T15:52:42.579Z,0.47
2019-05-28T15:55:11.385Z,0.40
2019-05-28T15:57:39.859Z,0.40
2019-05-28T16:00:10.517Z,0.35
2019-05-28T16:02:44.847Z,0.40
2019-05-28T16:05:13.548Z,0.53
2019-05-28T16:07:49.281Z,0.45
2019-05-28T16:10:17.786Z,0.77
2019-05-28T16:12:48.278Z,0.35
2019-05-28T16:15:17.177Z,0.40
2019-05-28T16:17:45.799Z,0.28
2019-05-28T16:20:25.241Z,0.28
2019-05-28T16:22:53.853Z,0.28
2019-05-28T16:25:22.558Z,0.40
2019-05-28T16:27:51.143Z,0.68
2019-05-28T16:30:20.421Z,5.33
2019-05-28T16:32:49.145Z,0.60
2019-05-28T16:35:20.238Z,0.50
2019-05-28T16:37:48.821Z,0.20
2019-05-28T16:40:18.569Z,0.42
2019-05-28T16:42:47.185Z,0.35
2019-05-28T16:45:16.135Z,0.25
2019-05-28T16:47:44.687Z,0.40
2019-05-28T16:50:15.028Z,0.40
2019-05-28T16:52:43.632Z,0.20
2019-05-28T16:55:12.390Z,0.33
2019-05-28T16:57:40.965Z,0.50
2019-05-28T17:00:10.061Z,0.87
2019-05-28T17:02:38.518Z,0.30
2019-05-28T17:05:07.788Z,0.20
2019-05-28T17:07:36.276Z,0.20
2019-05-28T17:10:06.048Z,0.30
2019-05-28T17:12:34.715Z,0.80
2019-05-28T17:15:05.299Z,0.37
2019-05-28T17:17:33.719Z,0.80
2019-05-28T17:20:02.433Z,0.60
2019-05-28T17:22:30.950Z,0.37
2019-05-28T17:24:59.389Z,2.30
2019-05-28T17:27:27.828Z,1.20
2019-05-28T17:30:13.409Z,1.20
2019-05-28T17:32:26.434Z,0.80
2019-05-28T17:34:54.878Z,0.60
2019-05-28T17:37:23.319Z,0.57
2019-05-28T17:39:51.769Z,0.43
2019-05-28T17:42:20.218Z,0.47
2019-05-28T17:44:48.641Z,0.30
2019-05-28T17:47:17.097Z,0.20
2019-05-28T17:49:45.538Z,0.20
2019-05-28T17:52:14.093Z,0.30
2019-05-28T17:54:42.567Z,0.50
2019-05-28T17:57:11.077Z,0.20
2019-05-28T17:59:39.516Z,0.50
2019-05-28T18:02:08.018Z,0.43
2019-05-28T18:04:36.440Z,0.30
2019-05-28T18:07:05.378Z,0.33
2019-05-28T18:09:33.802Z,0.30
2019-05-28T18:12:02.350Z,0.40
2019-05-28T18:14:31.218Z,0.40
2019-05-28T18:16:59.810Z,0.33
2019-05-28T18:19:28.491Z,0.40
2019-05-28T18:21:56.971Z,0.47
2019-05-28T18:24:25.400Z,1.00
2019-05-28T18:26:53.819Z,0.40
2019-05-28T18:29:22.617Z,0.43
2019-05-28T18:31:51.135Z,0.40
2019-05-28T18:34:19.560Z,0.23
2019-05-28T18:36:48.010Z,0.40
2019-05-28T18:39:16.430Z,0.30
2019-05-28T18:41:45.005Z,0.20
2019-05-28T18:44:13.596Z,0.20
2019-05-28T18:46:42.063Z,0.30
2019-05-28T18:49:10.491Z,1.07
2019-05-28T18:51:39.202Z,0.70
2019-05-28T18:54:07.765Z,0.37
2019-05-28T18:56:36.178Z,0.30
2019-05-28T18:59:04.828Z,0.30
2019-05-28T19:01:33.474Z,0.20
2019-05-28T19:04:02.307Z,0.20
2019-05-28T19:06:31.196Z,0.30
2019-05-28T19:09:00.071Z,0.60
2019-05-28T19:11:37.562Z,0.27
2019-05-28T19:13:59.078Z,0.23
2019-05-28T19:16:27.952Z,0.27
2019-05-28T19:18:56.483Z,0.27
2019-05-28T19:21:27.037Z,0.40
2019-05-28T19:23:55.557Z,0.33
2019-05-28T19:26:23.988Z,0.40
2019-05-28T19:28:52.431Z,0.30
2019-05-28T19:31:20.850Z,0.20
2019-05-28T19:33:49.281Z,0.30
2019-05-28T19:36:18.286Z,0.60
2019-05-28T19:38:47.681Z,0.10
2019-05-28T19:41:16.170Z,0.40
2019-05-28T19:43:44.611Z,0.30
2019-05-28T19:46:13.039Z,0.30
2019-05-28T19:48:41.479Z,0.23
2019-05-28T19:51:09.898Z,0.37
2019-05-28T19:53:38.360Z,0.30
2019-05-28T19:56:06.779Z,0.30
2019-05-28T19:58:35.249Z,0.30
2019-05-28T20:01:03.813Z,0.23
2019-05-28T20:03:32.314Z,0.40
2019-05-28T20:06:00.745Z,0.23
2019-05-28T20:08:29.195Z,0.73
2019-05-28T20:10:57.626Z,0.20
2019-05-28T20:13:27.525Z,0.40
2019-05-28T20:15:57.004Z,0.33
2019-05-28T20:18:26.992Z,0.23
2019-05-28T20:20:55.930Z,0.40
2019-05-28T20:23:24.451Z,0.20
2019-05-28T20:25:54.320Z,0.20
2019-05-28T20:28:23.067Z,0.50
2019-05-28T20:30:51.602Z,0.40
2019-05-28T20:33:20.041Z,0.33
2019-05-28T20:35:48.516Z,0.50
2019-05-28T20:38:17.105Z,0.60
2019-05-28T20:40:45.660Z,0.53
2019-05-28T20:43:14.092Z,0.30
2019-05-28T20:45:45.371Z,0.40
2019-05-28T20:48:13.977Z,0.17
2019-05-28T20:50:42.568Z,0.20
2019-05-28T20:53:11.010Z,0.30
2019-05-28T20:55:39.453Z,0.50
2019-05-28T20:58:07.919Z,0.40
2019-05-28T21:00:36.383Z,0.20
2019-05-28T21:03:05.060Z,0.30
2019-05-28T21:05:33.503Z,0.50
2019-05-28T21:08:01.976Z,1.60
2019-05-28T21:10:30.475Z,0.47
2019-05-28T21:12:59.019Z,0.47
2019-05-28T21:15:29.046Z,0.30
2019-05-28T21:17:57.504Z,0.30
2019-05-28T21:20:25.949Z,0.30
2019-05-28T21:22:55.665Z,0.30
2019-05-28T21:25:24.388Z,0.20
2019-05-28T21:27:52.838Z,0.60
2019-05-28T21:30:21.556Z,0.30
2019-05-28T21:32:50.674Z,0.30
2019-05-28T21:35:19.538Z,0.30
2019-05-28T21:37:48.106Z,0.40
2019-05-28T21:40:17.003Z,0.37
2019-05-28T21:42:58.454Z,0.30
2019-05-28T21:45:16.606Z,0.33
2019-05-28T21:47:45.035Z,0.40
2019-05-28T21:50:14.009Z,0.20
2019-05-28T21:52:42.431Z,0.40
2019-05-28T21:55:12.735Z,0.50
2019-05-28T21:57:41.176Z,0.57
2019-05-28T22:00:32.600Z,0.50
2019-05-28T22:03:01.213Z,0.40
2019-05-28T22:05:29.761Z,0.20
2019-05-28T22:07:59.372Z,0.37
2019-05-28T22:10:28.017Z,0.10
2019-05-28T22:12:57.661Z,0.37
2019-05-28T22:15:26.234Z,0.30
2019-05-28T22:17:54.672Z,0.40
2019-05-28T22:20:23.200Z,0.47
2019-05-28T22:22:51.643Z,0.37
2019-05-28T22:25:20.068Z,0.20
2019-05-28T22:27:48.517Z,0.20
2019-05-28T22:30:17.499Z,0.43
2019-05-28T22:32:45.949Z,0.30
2019-05-28T22:35:14.634Z,0.77
2019-05-28T22:37:43.074Z,0.47
2019-05-28T22:40:11.887Z,0.40
2019-05-28T22:42:40.338Z,0.20
2019-05-28T22:45:09.007Z,0.50
2019-05-28T22:47:37.431Z,0.40
2019-05-28T22:50:19.462Z,1.13
2019-05-28T22:52:39.666Z,1.30
2019-05-28T22:55:08.962Z,2.20
2019-05-28T22:57:37.395Z,0.83
2019-05-28T23:00:08.797Z,1.70
2019-05-28T23:02:37.411Z,1.97
2019-05-28T23:05:07.286Z,1.20
2019-05-28T23:07:35.881Z,0.60
2019-05-28T23:10:06.232Z,0.73
2019-05-28T23:12:34.656Z,0.37
2019-05-28T23:15:03.944Z,0.33
2019-05-28T23:17:32.471Z,0.90
2019-05-28T23:20:01.031Z,0.27
2019-05-28T23:22:29.492Z,0.40
2019-05-28T23:24:57.963Z,0.43
2019-05-28T23:27:26.386Z,0.33
2019-05-28T23:29:54.801Z,0.47
2019-05-28T23:32:23.232Z,0.50
2019-05-28T23:34:51.700Z,0.43
2019-05-28T23:37:20.115Z,0.40
2019-05-28T23:39:48.549Z,0.30
2019-05-28T23:42:16.973Z,0.20
2019-05-28T23:44:45.387Z,0.40
2019-05-28T23:47:14.319Z,0.40
2019-05-28T23:49:43.063Z,0.40
2019-05-28T23:52:12.526Z,0.30
2019-05-28T23:54:41.188Z,0.40
2019-05-28T23:57:09.863Z,0.30
2019-05-28T23:59:38.351Z,0.60
